Time;durP1;ratioP1;P1;durP2;ratioP2;P2;SDS_P1;SDS_P2;PMS_P1;PMS_P2;Temp;Humidity;BMP_temperature;BMP_pressure;BME280_temperature;BME280_humidity;BME280_pressure;Samples;Min_cycle;Max_cycle;Signal;HPM_P1;HPM_P2
2024/03/16 00:01:05;;;;;;;23.05;6.05;;;;;;;10.40;100.00;100858.75;5046635;28;20029;-74
2024/03/16 00:03:31;;;;;;;20.90;5.53;;;;;;;10.39;100.00;100862.25;5042796;28;20108;-73
2024/03/16 00:05:57;;;;;;;23.88;5.88;;;;;;;10.42;100.00;100861.38;5044622;28;20455;-68
2024/03/16 00:08:23;;;;;;;20.63;5.63;;;;;;;10.39;100.00;100861.38;5044117;28;20033;-66
2024/03/16 00:10:48;;;;;;;21.10;5.40;;;;;;;10.37;100.00;100871.94;5044921;28;20033;-67
2024/03/16 00:13:14;;;;;;;23.08;5.60;;;;;;;10.35;100.00;100867.53;5045096;28;20052;-68
2024/03/16 00:15:39;;;;;;;22.20;5.30;;;;;;;10.37;100.00;100866.66;5043470;28;20037;-67
2024/03/16 00:18:04;;;;;;;22.10;5.00;;;;;;;10.39;100.00;100864.91;5045338;28;20032;-67
2024/03/16 00:20:30;;;;;;;21.27;5.00;;;;;;;10.36;100.00;100872.81;5042940;28;20037;-66
2024/03/16 00:22:56;;;;;;;21.35;4.97;;;;;;;10.36;100.00;100875.44;5045682;28;20062;-67
2024/03/16 00:25:21;;;;;;;22.30;4.82;;;;;;;10.39;100.00;100871.94;5042630;28;20037;-66
2024/03/16 00:27:49;;;;;;;20.65;4.80;;;;;;;10.36;100.00;100875.44;5044535;28;20116;-69
2024/03/16 00:30:15;;;;;;;20.85;4.47;;;;;;;10.36;100.00;100872.81;5044810;28;20100;-77
2024/03/16 00:32:40;;;;;;;20.35;4.20;;;;;;;10.35;100.00;100880.72;5043306;28;20049;-73
2024/03/16 00:35:06;;;;;;;21.23;4.10;;;;;;;10.31;100.00;100885.09;5045868;28;20036;-69
2024/03/16 00:37:32;;;;;;;22.38;4.20;;;;;;;10.30;100.00;100888.59;5042810;28;20037;-78
2024/03/16 00:39:57;;;;;;;21.65;3.80;;;;;;;10.28;100.00;100885.03;5045970;28;20025;-72
2024/03/16 00:42:23;;;;;;;20.85;4.10;;;;;;;10.29;100.00;100889.47;5043765;28;20060;-66
2024/03/16 00:44:48;;;;;;;20.35;3.53;;;;;;;10.27;100.00;100894.75;5043280;28;20128;-66
2024/03/16 00:47:13;;;;;;;22.73;4.05;;;;;;;10.00;100.00;100894.56;5044888;28;20056;-79
2024/03/16 00:49:39;;;;;;;22.48;4.00;;;;;;;9.65;100.00;100906.56;5043853;28;20033;-76
2024/03/16 00:52:04;;;;;;;22.02;4.07;;;;;;;9.40;100.00;100895.78;5046744;28;20099;-73
2024/03/16 00:54:29;;;;;;;21.15;4.20;;;;;;;9.32;100.00;100896.56;5042934;28;20037;-71
2024/03/16 00:56:56;;;;;;;22.50;4.20;;;;;;;9.25;100.00;100908.84;5045927;28;20443;-73
2024/03/16 00:59:22;;;;;;;22.70;3.97;;;;;;;9.21;100.00;100907.03;5045207;28;20403;-72
2024/03/16 01:01:48;;;;;;;23.50;4.65;;;;;;;9.18;100.00;100913.16;5044359;28;20032;-69
2024/03/16 01:04:14;;;;;;;24.23;4.22;;;;;;;9.21;100.00;100918.44;5042924;28;20044;-71
2024/03/16 01:06:39;;;;;;;24.50;4.47;;;;;;;9.16;100.00;100919.25;5043042;28;20112;-74
2024/03/16 01:09:05;;;;;;;24.33;4.75;;;;;;;9.13;100.00;100925.41;5046132;28;20083;-77
2024/03/16 01:11:30;;;;;;;20.13;4.20;;;;;;;9.12;100.00;100921.00;5041478;28;20484;-78
2024/03/16 01:13:56;;;;;;;25.23;4.70;;;;;;;9.11;100.00;100920.97;5045327;28;20384;-79
2024/03/16 01:16:21;;;;;;;22.77;4.60;;;;;;;9.12;100.00;100922.75;5042492;28;20033;-76
2024/03/16 01:18:47;;;;;;;25.40;4.60;;;;;;;9.09;100.00;100923.59;5044183;28;20487;-79
2024/03/16 01:21:12;;;;;;;24.50;4.95;;;;;;;9.08;100.00;100927.09;5045075;28;20037;-77
2024/03/16 01:23:38;;;;;;;24.38;4.90;;;;;;;9.10;100.00;100927.13;5041769;28;20462;-71
2024/03/16 01:26:07;;;;;;;23.77;4.82;;;;;;;9.10;100.00;100937.66;5045237;28;20451;-65
2024/03/16 01:28:33;;;;;;;22.13;4.60;;;;;;;9.06;100.00;100935.00;5037775;28;20021;-65
2024/03/16 01:30:58;;;;;;;22.45;4.88;;;;;;;9.08;100.00;100925.34;5044753;28;20383;-65
2024/03/16 01:33:27;;;;;;;22.63;4.88;;;;;;;9.11;100.00;100944.72;5042486;28;20029;-65
2024/03/16 01:35:56;;;;;;;23.15;4.90;;;;;;;9.08;100.00;100942.91;5042382;28;20119;-65
2024/03/16 01:38:21;;;;;;;22.73;4.85;;;;;;;9.08;100.00;100938.53;5042788;28;20034;-65
2024/03/16 01:40:46;;;;;;;26.20;5.32;;;;;;;9.10;100.00;100948.22;5043035;28;20032;-66
2024/03/16 01:43:14;;;;;;;22.50;4.65;;;;;;;9.08;100.00;100949.06;5043803;28;20075;-69
2024/03/16 01:45:40;;;;;;;23.77;5.13;;;;;;;9.13;100.00;100958.78;5041741;28;20123;-71
2024/03/16 01:48:09;;;;;;;24.58;5.38;;;;;;;9.12;100.00;100951.78;5044710;28;20029;-65
2024/03/16 01:50:41;;;;;;;23.77;5.18;;;;;;;9.10;100.00;100957.03;5037732;28;20048;-65
2024/03/16 01:53:11;;;;;;;24.27;5.70;;;;;;;9.10;100.00;100954.41;5038262;28;20025;-65
2024/03/16 01:55:38;;;;;;;24.15;5.63;;;;;;;9.11;100.00;100957.91;5044227;28;20456;-66
2024/03/16 01:58:07;;;;;;;24.65;6.00;;;;;;;9.11;100.00;100964.06;5039896;28;20025;-66
2024/03/16 02:00:36;;;;;;;24.42;5.78;;;;;;;9.10;100.00;100970.22;5037071;28;20072;-66
2024/03/16 02:03:02;;;;;;;27.05;6.50;;;;;;;9.08;100.00;100967.53;5036879;28;20052;-66
2024/03/16 02:05:28;;;;;;;27.10;6.47;;;;;;;9.10;100.00;100969.31;5043984;28;20060;-66
2024/03/16 02:07:53;;;;;;;27.15;7.20;;;;;;;9.09;100.00;100973.72;5040721;28;20422;-71
2024/03/16 02:10:19;;;;;;;26.55;7.03;;;;;;;9.09;100.00;100971.06;5042610;28;20030;-69
2024/03/16 02:12:45;;;;;;;26.17;6.47;;;;;;;9.11;100.00;100974.59;5043074;28;20061;-68
2024/03/16 02:15:11;;;;;;;26.23;6.47;;;;;;;9.08;100.00;100974.56;5041442;28;20160;-69
2024/03/16 02:17:37;;;;;;;27.17;7.45;;;;;;;9.09;100.00;100984.25;5044244;28;20387;-75
2024/03/16 02:20:04;;;;;;;26.70;7.60;;;;;;;9.08;100.00;100983.34;5041072;28;20049;-79
2024/03/16 02:22:30;;;;;;;27.02;7.63;;;;;;;9.11;100.00;100995.69;5044107;28;20083;-76
2024/03/16 02:24:56;;;;;;;27.15;8.32;;;;;;;9.11;100.00;100992.19;5041351;28;20061;-78
2024/03/16 02:27:22;;;;;;;29.02;9.07;;;;;;;9.11;100.00;100989.56;5042585;28;20476;-78
2024/03/16 02:29:47;;;;;;;30.23;9.25;;;;;;;9.13;100.00;100993.06;5042531;28;20044;-79
2024/03/16 02:32:14;;;;;;;30.88;10.48;;;;;;;9.12;100.00;100993.97;5041724;28;20116;-76
2024/03/16 02:34:39;;;;;;;29.13;10.57;;;;;;;9.10;100.00;100991.31;5042934;28;20087;-77
2024/03/16 02:37:05;;;;;;;31.70;11.35;;;;;;;9.13;100.00;100994.00;5040886;28;20033;-79
2024/03/16 02:39:34;;;;;;;32.20;12.95;;;;;;;9.10;100.00;100993.03;5044354;28;20463;-77
2024/03/16 02:42:02;;;;;;;33.35;13.02;;;;;;;9.13;100.00;101004.53;5040995;28;20029;-74
2024/03/16 02:44:28;;;;;;;30.60;14.88;;;;;;;9.11;100.00;101005.38;5040758;28;20080;-76
2024/03/16 02:46:55;;;;;;;31.63;14.68;;;;;;;9.13;100.00;101003.63;5043098;28;20037;-73
2024/03/16 02:49:21;;;;;;;31.05;14.93;;;;;;;9.11;100.00;101011.53;5042130;28;20037;-78
2024/03/16 02:51:47;;;;;;;33.45;15.40;;;;;;;9.10;100.00;101009.78;5041853;28;20033;-77
2024/03/16 02:54:13;;;;;;;33.40;15.70;;;;;;;9.15;100.00;101018.63;5042230;28;20126;-71
2024/03/16 02:56:38;;;;;;;33.75;15.70;;;;;;;9.18;100.00;101030.97;5040877;28;20029;-77
2024/03/16 02:59:05;;;;;;;31.35;14.82;;;;;;;9.24;100.00;101046.88;5044023;28;20080;-73
2024/03/16 03:01:31;;;;;;;31.40;14.52;;;;;;;9.26;100.00;101045.13;5040621;28;20071;-71
2024/03/16 03:03:56;;;;;;;30.58;15.32;;;;;;;9.21;100.00;101052.09;5042993;28;20115;-66
2024/03/16 03:06:21;;;;;;;33.28;16.70;;;;;;;9.08;100.00;101056.31;5041762;28;20106;-69
2024/03/16 03:08:48;;;;;;;34.50;17.33;;;;;;;8.99;100.00;101062.34;5041900;28;20068;-71
2024/03/16 03:11:13;;;;;;;38.30;16.70;;;;;;;8.92;100.00;101057.84;5042745;28;20493;-70
2024/03/16 03:13:39;;;;;;;37.10;15.98;;;;;;;8.81;100.00;101059.44;5040568;28;20152;-70
2024/03/16 03:16:04;;;;;;;33.25;16.35;;;;;;;8.78;100.00;101067.31;5043892;28;20033;-67
2024/03/16 03:18:30;;;;;;;35.38;15.20;;;;;;;8.71;100.00;101075.13;5040236;28;20476;-67
2024/03/16 03:20:55;;;;;;;33.35;14.48;;;;;;;8.72;100.00;101076.91;5042821;28;20468;-67
2024/03/16 03:23:21;;;;;;;33.60;14.55;;;;;;;8.54;100.00;101088.03;5040543;28;20045;-66
2024/03/16 03:25:49;;;;;;;35.35;15.07;;;;;;;8.55;100.00;101094.19;5040340;28;20109;-66
2024/03/16 03:28:15;;;;;;;34.55;14.45;;;;;;;8.50;100.00;101095.84;5041108;28;20036;-66
2024/03/16 03:30:44;;;;;;;33.75;14.77;;;;;;;8.47;100.00;101101.94;5039890;28;20029;-65
2024/03/16 03:33:10;;;;;;;30.95;13.70;;;;;;;8.40;100.00;101107.06;5043107;28;20029;-68
2024/03/16 03:35:37;;;;;;;30.83;12.95;;;;;;;8.32;100.00;101109.56;5040250;28;20033;-71
2024/03/16 03:38:03;;;;;;;30.27;12.90;;;;;;;8.24;100.00;101114.69;5043828;28;20078;-66
2024/03/16 03:40:28;;;;;;;28.73;12.30;;;;;;;8.24;100.00;101117.31;5043036;28;20030;-67
2024/03/16 03:42:55;;;;;;;27.85;10.93;;;;;;;8.22;100.00;101121.69;5046157;28;20037;-66
2024/03/16 03:45:37;;;;;;;26.98;11.02;;;;;;;8.13;100.00;101121.53;5043943;28;20025;-67
2024/03/16 03:48:14;;;;;;;27.20;11.90;;;;;;;8.05;100.00;101123.09;5039993;28;20040;-66
2024/03/16 03:50:40;;;;;;;27.00;10.82;;;;;;;8.05;100.00;101129.25;5046470;28;20033;-67
2024/03/16 03:53:06;;;;;;;25.05;10.63;;;;;;;8.01;100.00;101132.72;5043317;28;20061;-67
2024/03/16 03:55:32;;;;;;;25.10;10.55;;;;;;;7.97;100.00;101142.28;5046895;28;20114;-66
2024/03/16 03:57:57;;;;;;;24.50;10.00;;;;;;;7.99;100.00;101143.22;5043833;28;20083;-66
2024/03/16 04:00:23;;;;;;;24.77;10.55;;;;;;;7.92;100.00;101138.69;5045307;28;20099;-66
2024/03/16 04:02:49;;;;;;;23.65;9.32;;;;;;;7.85;100.00;101139.41;5045190;28;20472;-68
2024/03/16 04:05:14;;;;;;;23.20;9.48;;;;;;;7.82;100.00;101142.88;5044164;28;20057;-71
2024/03/16 04:07:41;;;;;;;22.35;9.07;;;;;;;7.82;100.00;101149.84;5046244;28;20476;-66
2024/03/16 04:10:07;;;;;;;23.85;9.35;;;;;;;7.75;100.00;101162.00;5043236;28;20095;-69
2024/03/16 04:12:32;;;;;;;23.15;8.85;;;;;;;7.83;100.00;101162.16;5038904;28;20037;-66
2024/03/16 04:14:57;;;;;;;23.50;9.43;;;;;;;7.73;100.00;101168.97;5044369;28;20029;-66
2024/03/16 04:17:23;;;;;;;22.25;9.52;;;;;;;7.76;100.00;101174.31;5044210;28;20091;-65
2024/03/16 04:19:48;;;;;;;25.08;9.55;;;;;;;7.70;100.00;101173.28;5044380;28;20087;-65
2024/03/16 04:22:14;;;;;;;22.90;9.45;;;;;;;7.74;100.00;101177.78;5045341;28;20041;-66
2024/03/16 04:24:39;;;;;;;24.00;10.25;;;;;;;7.83;100.00;101181.50;5043081;28;20045;-67
2024/03/16 04:27:05;;;;;;;23.17;9.82;;;;;;;7.79;100.00;101181.38;5046387;28;20090;-67
2024/03/16 04:29:33;;;;;;;24.73;11.25;;;;;;;7.75;100.00;101184.81;5043419;28;20073;-66
2024/03/16 04:31:59;;;;;;;23.80;11.20;;;;;;;7.74;100.00;101206.72;5045380;28;20103;-68
2024/03/16 04:34:25;;;;;;;24.85;11.90;;;;;;;7.79;100.00;101200.72;5043933;28;20033;-69
2024/03/16 04:36:53;;;;;;;24.48;11.35;;;;;;;7.68;100.00;101205.72;5044618;28;20036;-66
2024/03/16 04:39:22;;;;;;;24.20;11.57;;;;;;;7.72;100.00;101216.31;5044397;28;20033;-71
2024/03/16 04:41:49;;;;;;;23.95;11.43;;;;;;;7.63;100.00;101230.16;5043876;28;20033;-71
2024/03/16 04:44:15;;;;;;;25.20;12.75;;;;;;;7.64;100.00;101238.06;5044764;28;20529;-67
2024/03/16 04:46:40;;;;;;;20.77;8.93;;;;;;;7.62;100.00;101249.44;5043083;28;20026;-68
2024/03/16 04:49:05;;;;;;;19.85;7.65;;;;;;;7.61;100.00;101253.81;5046084;28;20503;-67
2024/03/16 04:51:31;;;;;;;19.27;6.00;;;;;;;7.53;100.00;101254.47;5045084;28;20048;-67
2024/03/16 04:53:56;;;;;;;17.65;5.57;;;;;;;7.43;100.00;101248.13;5043075;28;20029;-68
2024/03/16 04:56:25;;;;;;;17.80;5.28;;;;;;;7.38;100.00;101262.91;5044327;28;20029;-68
2024/03/16 04:58:50;;;;;;;15.82;4.68;;;;;;;7.34;100.00;101251.44;5043859;28;20089;-66
2024/03/16 05:01:16;;;;;;;16.20;4.60;;;;;;;7.36;100.00;101267.25;5043148;28;20029;-70
2024/03/16 05:03:42;;;;;;;16.35;4.30;;;;;;;7.31;100.00;101265.41;5044868;28;20446;-67
2024/03/16 05:06:07;;;;;;;16.00;4.50;;;;;;;7.32;100.00;101267.19;5042409;28;20037;-68
2024/03/16 05:08:33;;;;;;;16.80;4.38;;;;;;;7.25;100.00;101272.22;5045277;28;20418;-68
2024/03/16 05:10:58;;;;;;;16.10;4.30;;;;;;;7.22;100.00;101278.28;5042431;28;20083;-66
2024/03/16 05:13:26;;;;;;;15.65;4.20;;;;;;;7.17;100.00;101285.19;5044193;28;20040;-66
2024/03/16 05:15:52;;;;;;;16.73;4.38;;;;;;;7.12;100.00;101289.44;5043180;28;20025;-66
2024/03/16 05:18:17;;;;;;;15.77;4.03;;;;;;;7.15;100.00;101300.06;5042970;28;20496;-71
2024/03/16 05:20:44;;;;;;;17.13;4.13;;;;;;;7.18;100.00;101304.47;5044553;28;20095;-69
2024/03/16 05:23:10;;;;;;;16.50;3.95;;;;;;;7.15;100.00;101310.56;5041765;28;20049;-67
2024/03/16 05:25:35;;;;;;;17.02;3.90;;;;;;;7.17;100.00;101322.00;5043976;28;20033;-66
2024/03/16 05:28:01;;;;;;;15.93;3.78;;;;;;;7.09;100.00;101320.91;5042411;28;20534;-66
2024/03/16 05:30:27;;;;;;;16.00;4.00;;;;;;;7.04;100.00;101330.44;5044107;28;20025;-66
2024/03/16 05:32:52;;;;;;;16.80;3.60;;;;;;;7.07;100.00;101339.28;5042698;28;20047;-66
2024/03/16 05:35:18;;;;;;;15.75;3.67;;;;;;;7.12;100.00;101334.13;5042934;28;20033;-65
2024/03/16 05:37:43;;;;;;;17.50;3.60;;;;;;;7.11;100.00;101335.00;5044144;28;20252;-66
2024/03/16 05:40:10;;;;;;;17.48;3.80;;;;;;;7.11;100.00;101333.25;5041692;28;20034;-72
2024/03/16 05:42:38;;;;;;;16.02;3.70;;;;;;;7.03;100.00;101340.03;5045212;28;20033;-67
2024/03/16 05:45:03;;;;;;;15.25;3.35;;;;;;;7.08;100.00;101351.56;5037196;28;20400;-66
2024/03/16 05:47:29;;;;;;;16.15;3.50;;;;;;;7.11;100.00;101353.41;5044117;28;20039;-66
2024/03/16 05:49:54;;;;;;;17.88;3.75;;;;;;;7.10;100.00;101359.50;5041038;28;20029;-66
2024/03/16 05:52:20;;;;;;;15.48;3.53;;;;;;;7.09;100.00;101365.59;5042669;28;20037;-68
2024/03/16 05:54:45;;;;;;;17.38;3.67;;;;;;;7.01;100.00;101373.28;5043714;28;20365;-65
2024/03/16 05:57:10;;;;;;;15.30;3.60;;;;;;;6.98;100.00;101384.59;5041432;28;20369;-66
2024/03/16 05:59:36;;;;;;;16.17;3.80;;;;;;;6.96;100.00;101388.94;5044718;28;20075;-66
2024/03/16 06:02:01;;;;;;;16.42;3.60;;;;;;;7.01;100.00;101394.31;5041449;28;20487;-78
2024/03/16 06:04:27;;;;;;;15.13;3.58;;;;;;;6.98;100.00;101392.50;5044432;28;20041;-78
2024/03/16 06:06:52;;;;;;;17.38;3.55;;;;;;;6.98;100.00;101400.38;5042817;28;20434;-77
2024/03/16 06:09:17;;;;;;;17.75;3.53;;;;;;;6.96;100.00;101407.34;5043501;28;20530;-77
2024/03/16 06:11:43;;;;;;;16.35;3.42;;;;;;;6.95;100.00;101405.56;5044830;28;20502;-76
2024/03/16 06:14:09;;;;;;;15.45;3.55;;;;;;;7.02;100.00;101408.34;5041930;28;20029;-73
2024/03/16 06:16:36;;;;;;;16.67;3.55;;;;;;;7.06;100.00;101423.34;5036783;28;20029;-78
2024/03/16 06:19:01;;;;;;;15.93;3.50;;;;;;;7.02;100.00;101429.38;5044815;28;20498;-77
2024/03/16 06:21:27;;;;;;;16.45;3.42;;;;;;;7.05;100.00;101424.19;5041453;28;20032;-75
2024/03/16 06:23:53;;;;;;;16.60;3.67;;;;;;;7.04;100.00;101435.59;5043546;28;20059;-75
2024/03/16 06:26:19;;;;;;;14.13;3.30;;;;;;;7.05;100.00;101450.50;5042874;28;20476;-76
2024/03/16 06:28:54;;;;;;;17.98;3.40;;;;;;;7.08;100.00;101461.13;5044143;28;20092;-73
2024/03/16 06:31:31;;;;;;;17.90;3.50;;;;;;;7.05;100.00;101468.88;5043161;28;20484;-73
2024/03/16 06:34:01;;;;;;;12.90;3.00;;;;;;;7.06;100.00;101478.56;5044907;28;20449;-78
2024/03/16 06:36:27;;;;;;;17.90;3.90;;;;;;;7.13;100.00;101480.53;5042410;28;20024;-75
2024/03/16 06:38:53;;;;;;;15.98;3.20;;;;;;;7.15;100.00;101485.00;5043220;28;20411;-73
2024/03/16 06:41:18;;;;;;;17.73;3.20;;;;;;;7.17;100.00;101489.41;5043163;28;20025;-72
2024/03/16 06:43:44;;;;;;;15.25;2.88;;;;;;;7.18;100.00;101489.47;5041730;28;20030;-74
2024/03/16 06:46:10;;;;;;;14.57;2.70;;;;;;;7.28;100.00;101485.31;5043766;28;20033;-67
2024/03/16 06:48:36;;;;;;;16.45;2.92;;;;;;;7.24;100.00;101499.25;5040968;28;20108;-71
2024/03/16 06:51:02;;;;;;;17.35;2.95;;;;;;;7.36;100.00;101498.72;5040658;28;20029;-73
2024/03/16 06:53:27;;;;;;;15.80;2.90;;;;;;;7.34;100.00;101506.56;5043247;28;20033;-75
2024/03/16 06:55:55;;;;;;;16.33;2.97;;;;;;;7.29;100.00;101519.56;5042173;28;20539;-75
2024/03/16 06:58:24;;;;;;;16.50;3.08;;;;;;;7.30;100.00;101513.47;5041902;28;20033;-66
2024/03/16 07:00:50;;;;;;;14.35;2.90;;;;;;;7.41;100.00;101520.75;5042227;28;20419;-66
2024/03/16 07:03:15;;;;;;;11.30;2.40;;;;;;;7.44;100.00;101526.09;5041376;28;20037;-66
2024/03/16 07:05:41;;;;;;;11.40;2.60;;;;;;;7.30;100.00;101560.81;5043353;28;20025;-71
2024/03/16 07:08:12;;;;;;;12.27;2.95;;;;;;;7.14;100.00;101559.47;5040774;28;20030;-69
2024/03/16 07:10:38;;;;;;;10.43;3.00;;;;;;;6.92;100.00;101571.06;5036745;28;20029;-69
2024/03/16 07:13:03;;;;;;;13.07;3.10;;;;;;;6.83;100.00;101577.75;5044038;28;20406;-67
2024/03/16 07:15:29;;;;;;;13.60;3.50;;;;;;;6.79;100.00;101576.78;5045014;28;20083;-67
2024/03/16 07:17:54;;;;;;;14.18;3.35;;;;;;;6.92;100.00;101593.84;5045019;28;20021;-66
2024/03/16 07:20:19;;;;;;;12.48;3.30;;;;;;;6.96;100.00;101591.34;5046052;28;20033;-66
2024/03/16 07:22:45;;;;;;;15.73;3.60;;;;;;;7.06;100.00;101602.13;5044856;28;20112;-67
2024/03/16 07:25:10;;;;;;;14.88;3.40;;;;;;;7.17;100.00;101603.38;5047168;28;20069;-66
2024/03/16 07:27:36;;;;;;;13.13;3.30;;;;;;;7.19;100.00;101611.31;5043866;28;20100;-66
2024/03/16 07:30:01;;;;;;;17.35;3.65;;;;;;;7.24;100.00;101610.59;5047013;28;20075;-66
2024/03/16 07:32:27;;;;;;;12.95;3.38;;;;;;;7.45;100.00;101620.84;5044664;28;20428;-68
2024/03/16 07:34:52;;;;;;;14.10;3.20;;;;;;;7.75;100.00;101619.97;5045485;28;20420;-69
2024/03/16 07:37:18;;;;;;;14.85;3.85;;;;;;;7.97;100.00;101621.47;5046354;28;20033;-69
2024/03/16 07:39:43;;;;;;;13.32;3.00;;;;;;;8.15;100.00;101615.78;5044226;28;20079;-67
2024/03/16 07:42:08;;;;;;;17.80;3.40;;;;;;;8.29;100.00;101621.44;5047025;28;20029;-67
2024/03/16 07:44:34;;;;;;;14.77;3.20;;;;;;;8.41;100.00;101623.47;5043786;28;20376;-67
2024/03/16 07:47:00;;;;;;;15.85;3.55;;;;;;;8.43;100.00;101634.06;5046178;28;20044;-66
2024/03/16 07:49:26;;;;;;;14.00;3.60;;;;;;;8.47;100.00;101636.84;5044523;28;20036;-68
2024/03/16 07:51:51;;;;;;;14.75;3.80;;;;;;;8.51;100.00;101645.72;5045138;28;20473;-68
2024/03/16 07:54:17;;;;;;;16.10;4.00;;;;;;;8.56;100.00;101657.25;5045987;28;20060;-67
2024/03/16 07:56:42;;;;;;;16.02;4.07;;;;;;;8.54;100.00;101658.97;5043841;28;20034;-66
2024/03/16 07:59:09;;;;;;;15.68;4.30;;;;;;;8.67;100.00;101671.63;5046686;28;20029;-66
2024/03/16 08:01:36;;;;;;;14.48;3.70;;;;;;;8.69;100.00;101676.94;5043365;28;20026;-66
2024/03/16 08:04:01;;;;;;;15.80;3.83;;;;;;;8.67;100.00;101682.16;5046482;28;20025;-66
2024/03/16 08:06:27;;;;;;;15.38;3.75;;;;;;;8.85;100.00;101678.19;5044133;28;20083;-67
2024/03/16 08:08:53;;;;;;;16.23;3.90;;;;;;;8.84;100.00;101689.59;5044959;28;20435;-76
2024/03/16 08:11:20;;;;;;;14.63;3.00;;;;;;;8.70;100.00;101690.13;5045501;28;20120;-66
2024/03/16 08:13:45;;;;;;;12.40;3.00;;;;;;;8.58;100.00;101696.84;5043733;28;20506;-74
2024/03/16 08:16:11;;;;;;;12.13;2.60;;;;;;;8.49;100.00;101701.03;5046360;28;20033;-66
2024/03/16 08:18:36;;;;;;;13.85;2.75;;;;;;;8.53;100.00;101692.38;5043000;28;20079;-66
2024/03/16 08:21:02;;;;;;;13.00;2.53;;;;;;;8.67;100.00;101703.25;5045860;28;20048;-66
2024/03/16 08:23:28;;;;;;;10.13;2.40;;;;;;;8.77;100.00;101695.59;5043712;28;20045;-65
2024/03/16 08:25:54;;;;;;;11.35;2.20;;;;;;;8.85;100.00;101696.66;5043181;28;20118;-66
2024/03/16 08:28:19;;;;;;;9.27;2.15;;;;;;;8.99;100.00;101703.16;5045089;28;20056;-66
2024/03/16 08:30:45;;;;;;;7.45;2.10;;;;;;;9.18;100.00;101707.13;5043397;28;20037;-65
2024/03/16 08:33:10;;;;;;;8.02;2.10;;;;;;;9.36;100.00;101706.69;5046145;28;20029;-66
2024/03/16 08:35:36;;;;;;;8.32;2.05;;;;;;;9.51;100.00;101707.88;5042525;28;20534;-65
2024/03/16 08:38:01;;;;;;;11.65;2.10;;;;;;;9.70;100.00;101704.81;5045273;28;20039;-65
2024/03/16 08:40:26;;;;;;;10.18;2.10;;;;;;;9.87;100.00;101706.91;5043879;28;20063;-66
2024/03/16 08:42:53;;;;;;;10.15;2.00;;;;;;;10.34;100.00;101709.66;5044288;28;20025;-65
2024/03/16 08:45:18;;;;;;;7.55;2.00;;;;;;;10.64;100.00;101716.34;5044885;28;20535;-65
2024/03/16 08:47:43;;;;;;;6.88;2.00;;;;;;;10.37;100.00;101722.91;5042742;28;20052;-65
2024/03/16 08:50:09;;;;;;;10.27;2.17;;;;;;;10.21;100.00;101734.03;5045996;28;20067;-65
2024/03/16 08:52:35;;;;;;;9.48;2.13;;;;;;;10.04;100.00;101746.88;5042714;28;20041;-70
2024/03/16 08:55:02;;;;;;;14.02;2.40;;;;;;;9.81;100.00;101741.09;5045006;28;20037;-66
2024/03/16 08:57:27;;;;;;;10.30;2.47;;;;;;;9.64;100.00;101741.63;5043257;28;20053;-66
2024/03/16 08:59:53;;;;;;;13.95;2.50;;;;;;;9.45;100.00;101742.06;5043863;28;20056;-65
2024/03/16 09:02:24;;;;;;;11.82;2.38;;;;;;;9.31;100.00;101742.63;5044642;28;20430;-66
2024/03/16 09:04:51;;;;;;;11.80;2.58;;;;;;;9.13;100.00;101752.72;5043229;28;20655;-67
2024/03/16 09:07:16;;;;;;;10.82;2.30;;;;;;;9.05;100.00;101757.81;5041900;28;20064;-66
2024/03/16 09:09:42;;;;;;;12.75;2.30;;;;;;;9.07;100.00;101761.38;5041891;28;20064;-67
2024/03/16 09:12:07;;;;;;;10.05;2.58;;;;;;;9.05;100.00;101766.59;5044672;28;20029;-65
2024/03/16 09:14:35;;;;;;;10.00;2.13;;;;;;;9.03;100.00;101778.00;5043085;28;20036;-69
2024/03/16 09:17:01;;;;;;;10.25;2.40;;;;;;;8.86;100.00;101774.91;5042509;28;20535;-68
2024/03/16 09:19:27;;;;;;;8.02;1.90;;;;;;;8.81;100.00;101784.44;5042450;28;20040;-67
2024/03/16 09:21:52;;;;;;;7.70;2.10;;;;;;;8.84;100.00;101785.44;5042538;28;20030;-67
2024/03/16 09:24:18;;;;;;;8.10;2.10;;;;;;;8.93;100.00;101790.03;5043779;28;20546;-66
2024/03/16 09:26:43;;;;;;;11.27;2.30;;;;;;;9.00;100.00;101799.00;5039395;28;20124;-66
2024/03/16 09:29:09;;;;;;;9.77;2.10;;;;;;;9.07;100.00;101801.84;5042175;28;20036;-66
2024/03/16 09:31:35;;;;;;;10.18;2.10;;;;;;;9.17;100.00;101802.06;5043095;28;20057;-66
2024/03/16 09:34:01;;;;;;;10.60;2.17;;;;;;;9.18;100.00;101804.75;5043902;28;20435;-69
2024/03/16 09:36:26;;;;;;;8.52;2.30;;;;;;;9.30;100.00;101811.19;5042141;28;20022;-71
2024/03/16 09:38:52;;;;;;;12.60;2.30;;;;;;;9.63;100.00;101813.75;5044786;28;20024;-66
2024/03/16 09:41:19;;;;;;;11.43;2.60;;;;;;;9.81;100.00;101809.75;5041345;28;20385;-66
2024/03/16 09:43:45;;;;;;;13.23;2.50;;;;;;;10.09;100.00;101808.63;5044194;28;20480;-66
2024/03/16 09:46:11;;;;;;;11.30;2.50;;;;;;;10.55;100.00;101819.31;5042274;28;20140;-67
2024/03/16 09:48:39;;;;;;;14.15;2.70;;;;;;;11.06;100.00;101821.13;5043024;28;20475;-69
2024/03/16 09:51:05;;;;;;;11.70;2.40;;;;;;;11.95;100.00;101820.81;5043081;28;20078;-68
2024/03/16 09:53:32;;;;;;;12.45;2.60;;;;;;;13.25;100.00;101826.75;5040738;28;20029;-67
2024/03/16 09:56:04;;;;;;;12.52;2.40;;;;;;;13.70;100.00;101828.88;5043955;28;20391;-69
2024/03/16 09:58:33;;;;;;;12.43;2.67;;;;;;;12.64;100.00;101847.31;5042192;28;20108;-70
2024/03/16 10:01:01;;;;;;;10.80;2.30;;;;;;;11.72;100.00;101852.22;5043691;28;20029;-67
2024/03/16 10:03:27;;;;;;;10.23;2.35;;;;;;;11.15;100.00;101852.16;5041469;28;20047;-69
2024/03/16 10:05:52;;;;;;;10.02;2.03;;;;;;;10.70;100.00;101871.59;5044367;28;20111;-66
2024/03/16 10:08:18;;;;;;;10.38;2.20;;;;;;;10.27;100.00;101867.16;5041087;28;20112;-66
2024/03/16 10:10:44;;;;;;;9.35;1.90;;;;;;;9.97;100.00;101870.00;5043932;28;20069;-66
2024/03/16 10:13:11;;;;;;;11.00;2.00;;;;;;;9.83;100.00;101876.69;5042503;28;20475;-76
2024/03/16 10:15:46;;;;;;;10.52;2.20;;;;;;;9.67;100.00;101886.91;5042670;28;20380;-76
2024/03/16 10:18:14;;;;;;;9.57;2.03;;;;;;;9.50;100.00;101891.75;5042079;28;20083;-77
2024/03/16 10:20:40;;;;;;;8.77;2.00;;;;;;;9.49;100.00;101886.44;5043146;28;20495;-70
2024/03/16 10:23:15;;;;;;;10.85;2.10;;;;;;;9.57;100.00;101898.09;5042494;28;20049;-65
2024/03/16 10:25:44;;;;;;;6.07;1.90;;;;;;;9.80;100.00;101895.13;5042950;28;20468;-66
2024/03/16 10:28:14;;;;;;;8.68;2.22;;;;;;;9.99;100.00;101902.66;5042180;28;20076;-66
2024/03/16 10:30:39;;;;;;;10.00;2.20;;;;;;;10.17;100.00;101898.63;5042997;28;20032;-66
2024/03/16 10:33:06;;;;;;;8.93;2.28;;;;;;;10.26;100.00;101901.47;5042376;28;20484;-68
2024/03/16 10:35:34;;;;;;;12.43;2.20;;;;;;;10.18;100.00;101898.69;5041687;28;20026;-66
2024/03/16 10:38:01;;;;;;;13.10;2.60;;;;;;;10.14;100.00;101915.31;5043561;28;20033;-68
2024/03/16 10:40:28;;;;;;;13.57;2.40;;;;;;;10.08;100.00;101923.09;5040811;28;20083;-69
2024/03/16 10:42:56;;;;;;;11.98;2.50;;;;;;;9.94;100.00;101926.28;5043937;28;20396;-67
2024/03/16 10:45:23;;;;;;;12.43;2.65;;;;;;;9.91;100.00;101936.78;5040897;28;20473;-66
2024/03/16 10:47:55;;;;;;;15.90;3.13;;;;;;;9.87;100.00;101929.66;5043814;28;20383;-66
2024/03/16 10:50:25;;;;;;;12.73;3.00;;;;;;;9.72;100.00;101940.72;5040684;28;20026;-65
2024/03/16 10:52:53;;;;;;;15.85;3.00;;;;;;;9.80;100.00;101943.56;5040829;28;20369;-66
2024/03/16 10:55:24;;;;;;;13.85;2.80;;;;;;;10.12;100.00;101946.97;5047996;28;20468;-66
2024/03/16 10:57:53;;;;;;;15.95;3.08;;;;;;;10.37;100.00;101954.59;5040250;28;20144;-66
2024/03/16 11:00:37;;;;;;;13.82;2.90;;;;;;;10.40;100.00;101962.63;5047483;28;20044;-66
2024/03/16 11:03:07;;;;;;;11.93;2.60;;;;;;;10.43;100.00;101960.06;5043383;28;20036;-66
2024/03/16 11:05:45;;;;;;;12.93;2.60;;;;;;;10.51;100.00;101955.81;5046893;28;20416;-66
2024/03/16 11:08:13;;;;;;;11.40;2.30;;;;;;;10.29;100.00;101960.59;5046678;28;20033;-71
2024/03/16 11:10:40;;;;;;;13.48;2.33;;;;;;;10.30;100.00;101966.78;5045596;28;20059;-69